createdAt,value
2018-08-30T00:00:03.722Z,80.43
2018-08-30T00:02:32.650Z,80.58
2018-08-30T00:05:01.424Z,80.19
2018-08-30T00:07:31.043Z,80.41
2018-08-30T00:10:00.409Z,80.73
2018-08-30T00:12:29.640Z,80.49
2018-08-30T00:14:58.644Z,80.42
2018-08-30T00:17:27.391Z,80.26
2018-08-30T00:19:56.049Z,81.02
2018-08-30T00:22:25.656Z,81.04
2018-08-30T00:24:54.576Z,80.94
2018-08-30T00:27:23.352Z,80.90
2018-08-30T00:29:52.832Z,80.99
2018-08-30T00:32:21.602Z,80.99
2018-08-30T00:34:51.490Z,80.69
2018-08-30T00:37:20.833Z,81.32
2018-08-30T00:39:49.691Z,80.71
2018-08-30T00:42:18.674Z,81.00
2018-08-30T00:44:47.345Z,81.43
2018-08-30T00:47:20.904Z,80.89
2018-08-30T00:49:50.660Z,81.12
2018-08-30T00:52:22.392Z,81.18
2018-08-30T00:54:53.270Z,81.56
2018-08-30T00:57:22.054Z,81.45
2018-08-30T00:59:51.391Z,81.64
2018-08-30T01:02:20.773Z,81.02
2018-08-30T01:04:49.541Z,81.34
2018-08-30T01:07:18.201Z,81.67
2018-08-30T01:09:47.004Z,81.59
2018-08-30T01:12:15.748Z,81.77
2018-08-30T01:14:44.489Z,81.17
2018-08-30T01:17:13.434Z,81.76
2018-08-30T01:19:42.252Z,81.87
2018-08-30T01:22:11.263Z,81.43
2018-08-30T01:24:39.993Z,81.64
2018-08-30T01:27:09.135Z,81.83
2018-08-30T01:29:38.016Z,82.11
2018-08-30T01:32:07.232Z,81.80
2018-08-30T01:34:36.132Z,82.12
2018-08-30T01:37:05.012Z,81.74
2018-08-30T01:39:33.859Z,81.86
2018-08-30T01:42:02.617Z,82.43
2018-08-30T01:44:32.463Z,82.07
2018-08-30T01:47:01.352Z,82.11
2018-08-30T01:49:31.784Z,82.54
2018-08-30T01:52:00.520Z,82.78
2018-08-30T01:54:29.453Z,82.20
2018-08-30T01:56:58.399Z,82.63
2018-08-30T01:59:27.915Z,82.39
2018-08-30T02:01:56.643Z,82.60
2018-08-30T02:04:26.034Z,82.88
2018-08-30T02:06:54.809Z,82.63
2018-08-30T02:09:24.017Z,82.72
2018-08-30T02:11:53.809Z,82.66
2018-08-30T02:14:22.588Z,82.79
2018-08-30T02:16:53.047Z,82.82
2018-08-30T02:19:22.134Z,82.96
2018-08-30T02:21:51.046Z,83.19
2018-08-30T02:24:19.892Z,83.03
2018-08-30T02:26:49.003Z,83.12
2018-08-30T02:29:17.788Z,83.29
2018-08-30T02:31:47.235Z,83.40
2018-08-30T02:34:17.055Z,83.54
2018-08-30T02:36:45.896Z,83.11
2018-08-30T02:39:14.800Z,83.06
2018-08-30T02:41:43.591Z,83.58
2018-08-30T02:44:12.390Z,83.50
2018-08-30T02:46:41.107Z,83.12
2018-08-30T02:49:10.656Z,83.65
2018-08-30T02:51:40.583Z,83.21
2018-08-30T02:54:13.149Z,83.63
2018-08-30T02:56:42.584Z,83.78
2018-08-30T02:59:13.223Z,83.47
2018-08-30T03:01:41.920Z,84.13
2018-08-30T03:04:10.604Z,83.88
2018-08-30T03:06:39.408Z,83.89
2018-08-30T03:09:09.456Z,84.30
2018-08-30T03:11:38.264Z,84.09
2018-08-30T03:14:07.692Z,83.99
2018-08-30T03:16:37.005Z,84.55
2018-08-30T03:19:06.554Z,84.77
2018-08-30T03:21:35.463Z,84.40
2018-08-30T03:24:04.309Z,84.59
2018-08-30T03:26:33.196Z,84.63
2018-08-30T03:29:02.963Z,84.38
2018-08-30T03:31:31.844Z,84.89
2018-08-30T03:34:02.198Z,84.85
2018-08-30T03:36:31.028Z,85.10
2018-08-30T03:39:00.392Z,84.85
2018-08-30T03:41:29.901Z,84.69
2018-08-30T03:43:59.280Z,84.79
2018-08-30T03:46:28.007Z,84.86
2018-08-30T03:48:57.006Z,84.65
2018-08-30T03:51:25.996Z,84.90
2018-08-30T03:53:54.996Z,85.08
2018-08-30T03:56:24.387Z,84.72
2018-08-30T03:58:53.964Z,84.57
2018-08-30T04:01:22.792Z,85.11
2018-08-30T04:03:51.688Z,85.05
2018-08-30T04:06:20.998Z,84.93
2018-08-30T04:08:50.387Z,85.18
2018-08-30T04:11:19.784Z,85.43
2018-08-30T04:13:48.737Z,85.00
2018-08-30T04:16:18.066Z,85.23
2018-08-30T04:18:51.339Z,85.14
2018-08-30T04:21:20.820Z,85.23
2018-08-30T04:23:49.719Z,85.29
2018-08-30T04:26:19.623Z,85.23
2018-08-30T04:28:49.105Z,85.88
2018-08-30T04:31:18.518Z,86.00
2018-08-30T04:33:47.269Z,85.46
2018-08-30T04:36:16.091Z,85.65
2018-08-30T04:38:45.544Z,85.62
2018-08-30T04:41:14.331Z,85.59
2018-08-30T04:43:43.065Z,86.01
2018-08-30T04:46:12.466Z,85.43
2018-08-30T04:48:41.933Z,85.87
2018-08-30T04:51:11.760Z,85.86
2018-08-30T04:53:41.139Z,86.10
2018-08-30T04:56:09.876Z,85.94
2018-08-30T04:58:40.352Z,86.34
2018-08-30T05:01:09.772Z,86.36
2018-08-30T05:03:39.832Z,86.08
2018-08-30T05:06:08.711Z,86.12
2018-08-30T05:08:37.588Z,86.28
2018-08-30T05:11:06.555Z,86.26
2018-08-30T05:13:35.287Z,85.78
2018-08-30T05:16:04.081Z,86.07
2018-08-30T05:18:32.829Z,86.18
2018-08-30T05:21:01.540Z,86.51
2018-08-30T05:23:30.720Z,86.15
2018-08-30T05:25:59.511Z,86.45
2018-08-30T05:28:28.828Z,86.16
2018-08-30T05:30:57.679Z,86.61
2018-08-30T05:33:27.206Z,86.69
2018-08-30T05:35:56.623Z,86.70
2018-08-30T05:38:25.389Z,86.31
2018-08-30T05:40:54.939Z,86.61
2018-08-30T05:43:24.204Z,86.64
2018-08-30T05:45:53.743Z,86.81
2018-08-30T05:48:22.637Z,86.38
2018-08-30T05:50:51.563Z,86.41
2018-08-30T05:53:20.420Z,86.63
2018-08-30T05:55:49.240Z,86.82
2018-08-30T05:58:18.101Z,86.65
2018-08-30T06:00:47.044Z,87.08
2018-08-30T06:03:16.395Z,86.94
2018-08-30T06:05:46.478Z,86.76
2018-08-30T06:08:15.942Z,86.77
2018-08-30T06:10:44.982Z,86.84
2018-08-30T06:13:13.806Z,87.22
2018-08-30T06:15:42.601Z,86.95
2018-08-30T06:18:13.861Z,87.14
2018-08-30T06:20:43.211Z,87.44
2018-08-30T06:23:12.868Z,87.06
2018-08-30T06:25:42.467Z,87.27
2018-08-30T06:28:12.379Z,87.56
2018-08-30T06:30:41.275Z,87.07
2018-08-30T06:33:10.899Z,87.26
2018-08-30T06:35:40.608Z,87.39
2018-08-30T06:38:09.376Z,87.45
2018-08-30T06:40:38.139Z,87.91
2018-08-30T06:43:06.861Z,87.43
2018-08-30T06:45:35.584Z,87.65
2018-08-30T06:48:04.372Z,87.45
2018-08-30T06:50:33.108Z,88.08
2018-08-30T06:53:01.858Z,87.47
2018-08-30T06:55:30.616Z,87.86
2018-08-30T06:57:59.321Z,87.91
2018-08-30T07:00:27.992Z,87.86
2018-08-30T07:02:56.677Z,87.76
2018-08-30T07:05:25.448Z,87.82
2018-08-30T07:07:54.136Z,88.33
2018-08-30T07:10:22.894Z,88.17
2018-08-30T07:12:51.603Z,88.34
2018-08-30T07:15:20.302Z,88.44
2018-08-30T07:17:48.975Z,88.05
2018-08-30T07:20:17.699Z,88.69
2018-08-30T07:22:46.348Z,88.69
2018-08-30T07:25:15.016Z,88.27
2018-08-30T07:27:43.732Z,88.38
2018-08-30T07:30:14.237Z,88.27
2018-08-30T07:32:43.196Z,88.27
2018-08-30T07:35:12.053Z,88.82
2018-08-30T07:37:40.749Z,88.35
2018-08-30T07:40:09.539Z,88.86
2018-08-30T07:42:38.262Z,88.79
2018-08-30T07:45:07.035Z,88.78
2018-08-30T07:47:35.735Z,88.41
2018-08-30T07:50:04.518Z,88.52
2018-08-30T07:52:33.277Z,88.58
2018-08-30T07:55:02.003Z,88.36
2018-08-30T07:57:30.782Z,88.14
2018-08-30T07:59:59.425Z,88.30
2018-08-30T08:02:28.154Z,88.51
2018-08-30T08:04:57.028Z,88.45
2018-08-30T08:07:25.817Z,88.23
2018-08-30T08:09:54.722Z,88.44
2018-08-30T08:12:23.465Z,87.65
2018-08-30T08:14:52.152Z,87.84
2018-08-30T08:17:20.942Z,87.75
2018-08-30T08:19:49.604Z,87.33
2018-08-30T08:22:18.389Z,86.89
2018-08-30T08:24:47.856Z,86.51
2018-08-30T08:27:16.643Z,86.21
2018-08-30T08:29:45.716Z,86.64
2018-08-30T08:32:14.477Z,86.35
2018-08-30T08:34:43.396Z,86.04
2018-08-30T08:37:12.247Z,86.04
2018-08-30T08:39:41.806Z,85.98
2018-08-30T08:42:10.603Z,85.54
2018-08-30T08:44:39.331Z,86.03
2018-08-30T08:47:08.377Z,85.41
2018-08-30T08:49:37.770Z,85.27
2018-08-30T08:52:06.703Z,84.62
2018-08-30T08:54:35.602Z,84.98
2018-08-30T08:57:04.320Z,85.22
2018-08-30T08:59:33.048Z,85.30
2018-08-30T09:02:01.827Z,84.78
2018-08-30T09:04:30.612Z,85.25
2018-08-30T09:06:59.478Z,84.98
2018-08-30T09:09:28.232Z,84.72
2018-08-30T09:11:57.053Z,84.93
2018-08-30T09:14:25.965Z,84.94
2018-08-30T09:16:54.760Z,84.81
2018-08-30T09:19:23.615Z,84.63
2018-08-30T09:21:52.406Z,84.47
2018-08-30T09:24:21.220Z,84.22
2018-08-30T09:26:50.130Z,83.97
2018-08-30T09:29:18.953Z,83.61
2018-08-30T09:31:47.662Z,83.31
2018-08-30T09:34:16.375Z,83.02
2018-08-30T09:36:45.076Z,82.88
2018-08-30T09:39:13.791Z,82.41
2018-08-30T09:41:42.453Z,81.87
2018-08-30T09:44:11.159Z,81.52
2018-08-30T09:46:39.851Z,81.45
2018-08-30T09:49:08.667Z,80.51
2018-08-30T09:51:37.399Z,79.97
2018-08-30T09:54:06.249Z,79.46
2018-08-30T09:56:34.980Z,78.10
2018-08-30T09:59:03.691Z,77.26
2018-08-30T10:01:37.496Z,76.37
2018-08-30T10:04:06.213Z,74.66
2018-08-30T10:06:34.945Z,72.89
2018-08-30T10:09:03.835Z,72.01
2018-08-30T10:11:32.513Z,70.58
2018-08-30T10:14:01.195Z,70.12
2018-08-30T10:16:29.857Z,70.49
2018-08-30T10:18:58.570Z,69.76
2018-08-30T10:21:27.453Z,69.43
2018-08-30T10:23:56.153Z,69.15
2018-08-30T10:26:24.923Z,68.64
2018-08-30T10:28:53.635Z,67.90
2018-08-30T10:31:22.638Z,67.54
2018-08-30T10:33:51.385Z,67.18
2018-08-30T10:36:20.050Z,66.64
2018-08-30T10:38:48.709Z,66.17
2018-08-30T10:41:17.360Z,66.16
2018-08-30T10:43:46.054Z,65.91
2018-08-30T10:46:14.772Z,65.21
2018-08-30T10:48:43.507Z,65.08
2018-08-30T10:51:12.228Z,64.68
2018-08-30T10:53:40.909Z,63.67
2018-08-30T10:56:09.694Z,63.77
2018-08-30T10:58:38.481Z,63.44
2018-08-30T11:01:07.222Z,62.83
2018-08-30T11:03:36.058Z,62.73
2018-08-30T11:06:04.919Z,62.16
2018-08-30T11:08:33.599Z,62.12
2018-08-30T11:11:02.272Z,61.92
2018-08-30T11:13:31.008Z,61.60
2018-08-30T11:15:59.696Z,61.38
2018-08-30T11:18:28.386Z,61.26
2018-08-30T11:20:57.100Z,60.99
2018-08-30T11:23:25.775Z,60.88
2018-08-30T11:25:54.436Z,60.85
2018-08-30T11:28:23.132Z,61.09
2018-08-30T11:30:51.811Z,60.21
2018-08-30T11:33:20.488Z,60.00
2018-08-30T11:35:49.180Z,59.94
2018-08-30T11:38:17.909Z,59.55
2018-08-30T11:40:46.596Z,59.23
2018-08-30T11:43:15.447Z,58.69
2018-08-30T11:45:44.169Z,58.18
2018-08-30T11:48:12.861Z,57.38
2018-08-30T11:50:41.579Z,57.10
2018-08-30T11:53:10.296Z,56.96
2018-08-30T11:55:38.996Z,56.57
2018-08-30T11:58:07.719Z,55.74
2018-08-30T12:00:36.438Z,55.40
2018-08-30T12:03:05.228Z,54.95
2018-08-30T12:05:34.013Z,54.72
2018-08-30T12:08:02.853Z,54.49
2018-08-30T12:10:31.689Z,54.12
2018-08-30T12:13:00.431Z,53.63
2018-08-30T12:15:29.273Z,52.76
2018-08-30T12:17:58.012Z,52.86
2018-08-30T12:20:26.755Z,51.97
2018-08-30T12:22:55.465Z,51.62
2018-08-30T12:25:24.289Z,51.47
2018-08-30T12:27:52.997Z,50.00
2018-08-30T12:30:22.001Z,49.37
2018-08-30T12:32:50.737Z,48.75
2018-08-30T12:35:19.514Z,48.68
2018-08-30T12:37:48.406Z,48.31
2018-08-30T12:40:17.171Z,48.31
2018-08-30T12:42:45.803Z,48.04
2018-08-30T12:45:14.579Z,48.21
2018-08-30T12:47:43.313Z,47.90
2018-08-30T12:50:12.353Z,47.90
2018-08-30T12:52:41.032Z,48.03
2018-08-30T12:55:09.916Z,47.35
2018-08-30T12:57:38.643Z,47.78
2018-08-30T13:00:07.639Z,47.71
2018-08-30T13:02:36.496Z,46.90
2018-08-30T13:05:05.277Z,47.87
2018-08-30T13:07:34.059Z,47.37
2018-08-30T13:10:03.022Z,47.61
2018-08-30T13:12:31.728Z,48.39
2018-08-30T13:15:00.624Z,48.71
2018-08-30T13:17:29.205Z,48.29
2018-08-30T13:19:57.884Z,47.55
2018-08-30T13:22:26.479Z,47.69
2018-08-30T13:24:55.795Z,46.74
2018-08-30T13:27:24.649Z,46.43
2018-08-30T13:29:53.339Z,46.07
2018-08-30T13:32:22.199Z,46.07
2018-08-30T13:34:51.088Z,47.29
2018-08-30T13:37:19.633Z,47.63
2018-08-30T13:39:48.340Z,48.80
2018-08-30T13:42:17.164Z,48.80
2018-08-30T13:44:45.867Z,50.09
2018-08-30T13:47:14.489Z,49.62
2018-08-30T13:49:43.051Z,49.77
2018-08-30T13:52:12.646Z,50.05
2018-08-30T13:54:41.458Z,50.16
2018-08-30T13:57:10.267Z,50.80
2018-08-30T13:59:39.162Z,50.57
2018-08-30T14:02:07.358Z,50.67
2018-08-30T14:04:36.159Z,50.16
2018-08-30T14:07:04.961Z,48.87
2018-08-30T14:09:33.630Z,48.23
2018-08-30T14:12:02.695Z,47.71
2018-08-30T14:14:31.272Z,48.24
2018-08-30T14:16:59.772Z,47.70
2018-08-30T14:19:28.460Z,48.12
2018-08-30T14:21:57.208Z,47.92
2018-08-30T14:24:25.928Z,47.89
2018-08-30T14:26:54.841Z,46.46
2018-08-30T14:29:23.403Z,46.23
2018-08-30T14:31:52.112Z,46.54
2018-08-30T14:34:21.003Z,45.72
2018-08-30T14:36:49.804Z,46.21
2018-08-30T14:39:18.634Z,46.36
2018-08-30T14:41:47.262Z,47.11
2018-08-30T14:44:15.967Z,48.20
2018-08-30T14:46:44.692Z,47.50
2018-08-30T14:49:13.454Z,47.87
2018-08-30T14:51:42.265Z,48.33
2018-08-30T14:54:10.971Z,48.57
2018-08-30T14:56:39.685Z,47.41
2018-08-30T14:59:08.568Z,47.79
2018-08-30T15:01:37.160Z,47.26
2018-08-30T15:04:05.949Z,46.97
2018-08-30T15:06:34.664Z,47.62
2018-08-30T15:09:03.490Z,47.99
2018-08-30T15:11:32.287Z,47.66
2018-08-30T15:14:01.001Z,47.79
2018-08-30T15:16:29.656Z,47.93
2018-08-30T15:18:58.336Z,47.75
2018-08-30T15:21:27.083Z,47.17
2018-08-30T15:23:55.833Z,46.92
2018-08-30T15:26:24.565Z,47.38
2018-08-30T15:28:53.248Z,47.08
2018-08-30T15:31:22.260Z,46.93
2018-08-30T15:33:51.055Z,46.67
2018-08-30T15:36:20.059Z,46.28
2018-08-30T15:38:48.850Z,45.98
2018-08-30T15:41:17.637Z,46.58
2018-08-30T15:43:46.621Z,46.72
2018-08-30T15:46:15.387Z,46.70
2018-08-30T15:48:44.175Z,47.37
2018-08-30T15:51:12.980Z,47.53
2018-08-30T15:53:41.663Z,48.43
2018-08-30T15:56:10.522Z,48.12
2018-08-30T15:58:39.233Z,48.61
2018-08-30T16:01:08.071Z,49.43
2018-08-30T16:03:36.888Z,49.62
2018-08-30T16:06:06.014Z,49.87
2018-08-30T16:08:34.830Z,49.64
2018-08-30T16:11:03.541Z,49.69
2018-08-30T16:13:32.473Z,50.33
2018-08-30T16:16:01.927Z,51.14
2018-08-30T16:18:31.352Z,50.47
2018-08-30T16:20:59.944Z,50.62
2018-08-30T16:23:30.065Z,50.43
2018-08-30T16:25:59.004Z,51.17
2018-08-30T16:28:28.835Z,51.51
2018-08-30T16:30:57.688Z,51.42
2018-08-30T16:33:26.429Z,51.52
2018-08-30T16:35:55.215Z,51.01
2018-08-30T16:38:24.080Z,50.92
2018-08-30T16:40:52.822Z,50.64
2018-08-30T16:43:21.606Z,49.65
2018-08-30T16:45:50.603Z,48.62
2018-08-30T16:48:19.516Z,47.87
2018-08-30T16:50:48.212Z,47.50
2018-08-30T16:53:16.965Z,46.58
2018-08-30T16:55:45.681Z,45.46
2018-08-30T16:58:14.397Z,44.64
2018-08-30T17:00:43.157Z,44.12
2018-08-30T17:03:11.887Z,43.26
2018-08-30T17:05:40.597Z,43.63
2018-08-30T17:08:09.293Z,42.82
2018-08-30T17:10:38.000Z,42.08
2018-08-30T17:13:06.909Z,42.56
2018-08-30T17:15:35.612Z,42.63
2018-08-30T17:18:04.781Z,41.54
2018-08-30T17:20:37.592Z,41.84
2018-08-30T17:23:06.424Z,42.50
2018-08-30T17:25:35.493Z,42.02
2018-08-30T17:28:04.300Z,42.72
2018-08-30T17:30:33.259Z,43.05
2018-08-30T17:33:02.003Z,43.52
2018-08-30T17:35:30.744Z,44.08
2018-08-30T17:37:59.503Z,44.60
2018-08-30T17:40:28.385Z,44.67
2018-08-30T17:42:57.187Z,45.02
2018-08-30T17:45:27.152Z,45.42
2018-08-30T17:47:55.761Z,45.67
2018-08-30T17:50:24.654Z,45.21
2018-08-30T17:52:53.502Z,46.23
2018-08-30T17:55:22.247Z,47.54
2018-08-30T17:57:51.090Z,47.43
2018-08-30T18:00:19.850Z,48.62
2018-08-30T18:02:48.691Z,49.20
2018-08-30T18:05:17.725Z,49.01
2018-08-30T18:07:46.915Z,50.08
2018-08-30T18:10:15.871Z,50.37
2018-08-30T18:12:44.600Z,51.10
2018-08-30T18:15:14.828Z,51.32
2018-08-30T18:17:44.099Z,52.05
2018-08-30T18:20:12.896Z,52.45
2018-08-30T18:22:42.473Z,52.59
2018-08-30T18:25:11.453Z,53.23
2018-08-30T18:27:40.185Z,53.75
2018-08-30T18:30:10.110Z,53.92
2018-08-30T18:32:38.965Z,54.41
2018-08-30T18:35:09.170Z,54.53
2018-08-30T18:37:38.226Z,54.90
2018-08-30T18:40:07.945Z,55.25
2018-08-30T18:42:36.680Z,55.68
2018-08-30T18:45:05.459Z,56.23
2018-08-30T18:47:34.199Z,56.55
2018-08-30T18:50:03.028Z,56.73
2018-08-30T18:52:32.073Z,57.22
2018-08-30T18:55:00.754Z,57.50
2018-08-30T18:57:29.394Z,58.31
2018-08-30T18:59:58.115Z,58.89
2018-08-30T19:02:26.796Z,59.00
2018-08-30T19:04:55.524Z,59.31
2018-08-30T19:07:24.555Z,59.49
2018-08-30T19:09:53.370Z,59.65
2018-08-30T19:12:22.118Z,60.12
2018-08-30T19:14:50.823Z,60.80
2018-08-30T19:17:24.575Z,61.54
2018-08-30T19:19:53.276Z,61.50
2018-08-30T19:22:21.992Z,61.57
2018-08-30T19:24:55.943Z,62.01
2018-08-30T19:27:24.636Z,62.07
2018-08-30T19:29:58.488Z,62.28
2018-08-30T19:32:27.233Z,62.42
2018-08-30T19:35:00.105Z,62.62
2018-08-30T19:37:28.895Z,62.91
2018-08-30T19:39:57.720Z,63.56
2018-08-30T19:42:28.867Z,63.40
2018-08-30T19:44:57.630Z,63.57
2018-08-30T19:47:26.374Z,63.86
2018-08-30T19:49:55.091Z,64.25
2018-08-30T19:52:23.842Z,64.20
2018-08-30T19:54:52.784Z,64.40
2018-08-30T19:57:21.622Z,64.75
2018-08-30T19:59:50.319Z,65.11
2018-08-30T20:02:19.069Z,65.50
2018-08-30T20:04:47.776Z,65.58
2018-08-30T20:07:16.444Z,65.75
2018-08-30T20:09:45.260Z,65.94
2018-08-30T20:12:13.980Z,66.17
2018-08-30T20:14:43.452Z,66.28
2018-08-30T20:17:12.169Z,66.20
2018-08-30T20:19:40.843Z,66.32
2018-08-30T20:22:11.304Z,66.25
2018-08-30T20:24:40.040Z,66.10
2018-08-30T20:27:09.214Z,66.19
2018-08-30T20:29:38.267Z,66.19
2018-08-30T20:32:07.276Z,66.33
2018-08-30T20:34:36.090Z,66.22
2018-08-30T20:37:04.888Z,66.33
2018-08-30T20:39:33.691Z,66.62
2018-08-30T20:42:02.440Z,66.51
2018-08-30T20:44:31.215Z,66.84
2018-08-30T20:46:59.984Z,66.91
2018-08-30T20:49:28.728Z,66.94
2018-08-30T20:51:57.426Z,66.89
2018-08-30T20:54:26.230Z,66.94
2018-08-30T20:56:55.119Z,66.79
2018-08-30T20:59:24.990Z,66.77
2018-08-30T21:01:53.830Z,66.65
2018-08-30T21:04:22.544Z,66.62
2018-08-30T21:06:51.306Z,66.52
2018-08-30T21:09:20.368Z,66.65
2018-08-30T21:11:49.102Z,66.81
2018-08-30T21:14:17.860Z,67.15
2018-08-30T21:16:46.591Z,67.32
2018-08-30T21:19:15.460Z,67.55
2018-08-30T21:21:44.313Z,67.81
2018-08-30T21:24:13.056Z,67.95
2018-08-30T21:26:41.763Z,68.13
2018-08-30T21:29:10.529Z,68.29
2018-08-30T21:31:39.440Z,68.45
2018-08-30T21:34:08.171Z,68.62
2018-08-30T21:36:37.104Z,68.61
2018-08-30T21:39:07.679Z,68.78
2018-08-30T21:41:36.451Z,68.92
2018-08-30T21:44:05.558Z,69.11
2018-08-30T21:46:34.583Z,68.96
2018-08-30T21:49:03.552Z,69.13
2018-08-30T21:51:32.292Z,69.21
2018-08-30T21:54:01.019Z,69.24
2018-08-30T21:56:29.691Z,69.46
2018-08-30T21:58:58.420Z,69.52
2018-08-30T22:01:27.220Z,69.46
2018-08-30T22:03:55.940Z,69.48
2018-08-30T22:06:24.831Z,69.31
2018-08-30T22:08:53.539Z,69.28
2018-08-30T22:11:22.312Z,69.41
2018-08-30T22:13:50.993Z,69.25
2018-08-30T22:16:19.698Z,69.29
2018-08-30T22:18:48.422Z,69.37
2018-08-30T22:21:17.087Z,69.22
2018-08-30T22:23:45.781Z,69.36
2018-08-30T22:26:14.674Z,69.50
2018-08-30T22:28:43.367Z,69.28
2018-08-30T22:31:12.108Z,69.91
2018-08-30T22:33:40.786Z,69.89
2018-08-30T22:36:09.480Z,69.75
2018-08-30T22:38:38.168Z,69.87
2018-08-30T22:41:07.040Z,69.87
2018-08-30T22:43:35.705Z,70.18
2018-08-30T22:46:04.382Z,70.17
2018-08-30T22:48:33.109Z,70.28
2018-08-30T22:51:01.813Z,70.31
2018-08-30T22:53:30.507Z,70.29
2018-08-30T22:55:59.161Z,70.16
2018-08-30T22:58:27.837Z,70.27
2018-08-30T23:00:56.521Z,70.36
2018-08-30T23:03:25.156Z,70.26
2018-08-30T23:05:53.919Z,70.74
2018-08-30T23:08:22.565Z,70.30
2018-08-30T23:10:51.307Z,70.60
2018-08-30T23:13:20.059Z,70.65
2018-08-30T23:15:48.802Z,70.27
2018-08-30T23:18:17.476Z,70.72
2018-08-30T23:20:46.180Z,70.32
2018-08-30T23:23:14.832Z,70.52
2018-08-30T23:25:43.531Z,70.68
2018-08-30T23:28:12.272Z,70.94
2018-08-30T23:30:40.897Z,70.64
2018-08-30T23:33:09.548Z,70.94
2018-08-30T23:35:38.313Z,70.87
2018-08-30T23:38:07.472Z,71.19
2018-08-30T23:40:36.193Z,71.46
2018-08-30T23:43:04.878Z,70.86
2018-08-30T23:45:33.567Z,71.14
2018-08-30T23:48:02.355Z,71.65
2018-08-30T23:50:31.028Z,71.59
2018-08-30T23:52:59.755Z,71.43
2018-08-30T23:55:28.455Z,71.26
2018-08-30T23:58:08.028Z,71.72
